Portada
METAR-TAF:

METAR-TAF

Aeropuertos :

Vladivostok, Rusia

Aeropuerto Internacional de Vladivostok

latitud: 43-07N, longitud: 131-56E, altitud: 184 m

Observación

El informe se hizo hace 39 minutos, a las 03:30 UTC
Viento 4 kt del sur, variando entre este-sureste y oeste-suroeste
Temperatura 23°C
Humedad 31%
Presión 1014 hPa
Visibilidad 10 km o más

METAR: UHWW 250330Z 19002MPS 110V240 9999 NSC 23/05 Q1014 R25L/0///70 NOSIG RMK QFE760

Hora: 14:09 (04:09 UTC)

Pronóstico

El informe se hizo hace 2 horas y 9 minutos, a las 02:00 UTC
Pronóstico válido del 25 a las 03 UTC al 26 a las 03 UTC
Viento 6 kt del oeste-suroeste
Visibilidad 10 km o más
Evolucionando progresivamente
del 25 a las 10 UTC al 25 a las 12 UTC
Viento 2 kt con dirección variable

TAF: UHWW 250200Z 2503/2603 24003MPS 9999 NSC BECMG 2510/2512 VRB01MPS

Observaciones y pronósticos meteorológicos de más de 4000 aeropuertos (mensajes METAR y TAF).

Los puntos amarillos y rojos representan las estaciones disponibles.

Ponga el ratón en el punto deseado para ver el nombre de la estación.

Haga clic para ver las observaciones y los pronósticos meteorológicos.

Para cambiar el mapa : haga clic en los botones verdes con una cruz de color negro para hacer un zoom, en el botón verde con un guión para alejar o en las flechas verdes para mapas adyacentes.


METAR-TAF: